createdAt,value
2019-02-23T00:01:18.858Z,24.70
2019-02-23T00:03:48.023Z,26.37
2019-02-23T00:06:17.288Z,28.53
2019-02-23T00:08:46.419Z,28.87
2019-02-23T00:11:15.538Z,30.37
2019-02-23T00:13:44.660Z,26.67
2019-02-23T00:16:13.765Z,26.33
2019-02-23T00:18:42.890Z,27.03
2019-02-23T00:21:12.366Z,25.50
2019-02-23T00:23:41.495Z,26.73
2019-02-23T00:26:10.611Z,26.23
2019-02-23T00:28:39.732Z,28.43
2019-02-23T00:31:08.838Z,29.40
2019-02-23T00:33:37.968Z,31.83
2019-02-23T00:36:07.073Z,28.30
2019-02-23T00:38:36.257Z,29.17
2019-02-23T00:41:05.491Z,28.23
2019-02-23T00:43:34.697Z,28.13
2019-02-23T00:46:03.850Z,27.77
2019-02-23T00:48:33.043Z,26.70
2019-02-23T00:51:02.252Z,27.13
2019-02-23T00:53:31.343Z,24.57
2019-02-23T00:56:00.475Z,24.67
2019-02-23T00:58:29.569Z,26.13
2019-02-23T01:00:58.702Z,24.97
2019-02-23T01:03:27.872Z,26.57
2019-02-23T01:05:57.026Z,25.83
2019-02-23T01:08:26.121Z,27.07
2019-02-23T01:10:58.035Z,27.63
2019-02-23T01:13:26.083Z,27.33
2019-02-23T01:15:55.219Z,29.23
2019-02-23T01:18:24.328Z,29.40
2019-02-23T01:20:53.482Z,28.17
2019-02-23T01:23:22.577Z,28.57
2019-02-23T01:25:52.014Z,26.00
2019-02-23T01:28:21.130Z,28.87
2019-02-23T01:30:50.593Z,28.80
2019-02-23T01:33:19.692Z,28.87
2019-02-23T01:35:48.922Z,28.30
2019-02-23T01:38:18.030Z,25.47
2019-02-23T01:40:47.176Z,27.63
2019-02-23T01:43:16.918Z,27.30
2019-02-23T01:45:46.065Z,26.47
2019-02-23T01:48:15.153Z,26.33
2019-02-23T01:50:44.305Z,29.37
2019-02-23T01:53:13.752Z,30.20
2019-02-23T01:55:42.909Z,26.60
2019-02-23T01:58:12.040Z,28.80
2019-02-23T02:00:41.647Z,30.03
2019-02-23T02:03:10.796Z,28.13
2019-02-23T02:05:39.942Z,28.77
2019-02-23T02:08:09.061Z,25.67
2019-02-23T02:10:38.265Z,28.00
2019-02-23T02:13:07.722Z,27.60
2019-02-23T02:15:36.819Z,28.77
2019-02-23T02:18:06.075Z,31.33
2019-02-23T02:20:35.216Z,27.83
2019-02-23T02:23:04.342Z,29.23
2019-02-23T02:25:33.449Z,28.87
2019-02-23T02:28:02.648Z,29.77
2019-02-23T02:30:31.771Z,32.20
2019-02-23T02:33:01.221Z,27.73
2019-02-23T02:35:30.432Z,29.33
2019-02-23T02:37:59.911Z,27.70
2019-02-23T02:40:29.011Z,32.07
2019-02-23T02:42:58.141Z,28.03
2019-02-23T02:45:27.253Z,30.53
2019-02-23T02:47:56.389Z,31.37
2019-02-23T02:50:25.497Z,30.13
2019-02-23T02:52:54.639Z,30.87
2019-02-23T02:55:23.737Z,30.90
2019-02-23T02:57:52.891Z,28.97
2019-02-23T03:00:22.001Z,32.53
2019-02-23T03:02:51.149Z,29.50
2019-02-23T03:05:20.246Z,31.90
2019-02-23T03:07:49.376Z,31.63
2019-02-23T03:10:18.478Z,33.10
2019-02-23T03:12:47.643Z,30.90
2019-02-23T03:15:16.769Z,29.73
2019-02-23T03:17:45.937Z,34.00
2019-02-23T03:20:15.029Z,29.83
2019-02-23T03:22:44.152Z,33.53
2019-02-23T03:25:13.255Z,33.57
2019-02-23T03:27:42.408Z,31.53
2019-02-23T03:30:12.077Z,33.10
2019-02-23T03:32:41.229Z,29.37
2019-02-23T03:35:10.263Z,33.97
2019-02-23T03:37:39.367Z,34.07
2019-02-23T03:40:09.527Z,30.00
2019-02-23T03:42:38.696Z,34.70
2019-02-23T03:45:07.876Z,30.53
2019-02-23T03:47:36.947Z,31.20
2019-02-23T03:50:06.211Z,32.40
2019-02-23T03:52:35.312Z,34.33
2019-02-23T03:55:04.818Z,29.47
2019-02-23T03:57:33.888Z,35.83
2019-02-23T04:00:03.213Z,33.40
2019-02-23T04:02:40.348Z,33.60
2019-02-23T04:05:09.422Z,35.07
2019-02-23T04:07:38.908Z,34.37
2019-02-23T04:10:08.003Z,32.27
2019-02-23T04:12:37.064Z,33.50
2019-02-23T04:15:06.262Z,32.60
2019-02-23T04:17:38.145Z,29.97
2019-02-23T04:20:07.303Z,32.40
2019-02-23T04:22:36.373Z,30.10
2019-02-23T04:25:05.519Z,31.57
2019-02-23T04:27:37.060Z,27.87
2019-02-23T04:30:06.217Z,30.97
2019-02-23T04:32:35.348Z,34.30
2019-02-23T04:35:04.443Z,31.33
2019-02-23T04:37:34.665Z,36.10
2019-02-23T04:40:03.943Z,35.70
2019-02-23T04:42:33.055Z,36.40
2019-02-23T04:45:05.000Z,38.27
2019-02-23T04:47:34.186Z,33.27
2019-02-23T04:50:06.011Z,31.87
2019-02-23T04:52:37.289Z,32.50
2019-02-23T04:55:10.051Z,34.30
2019-02-23T04:57:39.293Z,34.67
2019-02-23T05:00:09.821Z,33.17
2019-02-23T05:02:39.012Z,32.13
2019-02-23T05:05:08.906Z,34.63
2019-02-23T05:07:38.730Z,34.67
2019-02-23T05:10:08.022Z,30.30
2019-02-23T05:12:37.124Z,32.87
2019-02-23T05:15:06.752Z,35.73
2019-02-23T05:17:36.030Z,38.93
2019-02-23T05:20:05.695Z,34.83
2019-02-23T05:22:40.309Z,34.90
2019-02-23T05:25:09.429Z,34.43
2019-02-23T05:27:38.482Z,36.30
2019-02-23T05:30:08.563Z,35.97
2019-02-23T05:32:37.634Z,39.33
2019-02-23T05:35:08.036Z,38.20
2019-02-23T05:37:37.202Z,39.13
2019-02-23T05:40:08.072Z,34.73
2019-02-23T05:42:37.285Z,34.80
2019-02-23T05:45:15.858Z,35.97
2019-02-23T05:47:45.216Z,34.37
2019-02-23T05:50:14.453Z,32.60
2019-02-23T05:52:43.650Z,32.33
2019-02-23T05:55:12.881Z,37.83
2019-02-23T05:57:42.311Z,37.90
2019-02-23T06:00:16.327Z,37.40
2019-02-23T06:02:45.898Z,38.37
2019-02-23T06:05:15.020Z,37.10
2019-02-23T06:07:44.141Z,36.03
2019-02-23T06:10:14.816Z,33.73
2019-02-23T06:12:43.882Z,33.47
2019-02-23T06:15:13.476Z,34.37
2019-02-23T06:17:42.534Z,38.90
2019-02-23T06:20:11.781Z,31.57
2019-02-23T06:22:40.990Z,36.43
2019-02-23T06:25:10.340Z,37.40
2019-02-23T06:27:39.421Z,36.80
2019-02-23T06:30:11.593Z,36.90
2019-02-23T06:32:40.771Z,35.77
2019-02-23T06:35:09.939Z,36.03
2019-02-23T06:37:38.940Z,38.50
2019-02-23T06:40:08.660Z,35.63
2019-02-23T06:42:48.323Z,32.47
2019-02-23T06:45:17.413Z,34.30
2019-02-23T06:47:46.589Z,32.67
2019-02-23T06:50:15.718Z,30.80
2019-02-23T06:52:44.778Z,34.77
2019-02-23T06:55:14.054Z,35.47
2019-02-23T06:57:43.149Z,37.33
2019-02-23T07:00:15.205Z,37.73
2019-02-23T07:02:49.574Z,41.13
2019-02-23T07:05:22.047Z,39.20
2019-02-23T07:07:53.942Z,37.47
2019-02-23T07:10:25.822Z,36.40
2019-02-23T07:12:57.454Z,39.90
2019-02-23T07:15:26.675Z,45.53
2019-02-23T07:17:56.213Z,42.23
2019-02-23T07:20:25.359Z,41.83
2019-02-23T07:23:07.509Z,42.73
2019-02-23T07:25:37.917Z,55.17
2019-02-23T07:28:10.892Z,57.60
2019-02-23T07:30:41.933Z,45.73
2019-02-23T07:33:11.125Z,47.23
2019-02-23T07:35:44.850Z,43.70
2019-02-23T07:38:43.986Z,42.73
2019-02-23T07:41:15.251Z,44.07
2019-02-23T07:43:46.112Z,44.27
2019-02-23T07:46:15.305Z,37.47
2019-02-23T07:48:55.782Z,39.77
2019-02-23T07:51:25.173Z,39.97
2019-02-23T07:53:58.800Z,43.40
2019-02-23T07:56:28.164Z,39.03
2019-02-23T07:58:58.938Z,41.57
2019-02-23T08:01:30.166Z,45.50
2019-02-23T08:03:59.343Z,44.03
2019-02-23T08:06:46.441Z,37.63
2019-02-23T08:09:06.098Z,40.10
2019-02-23T08:11:39.607Z,40.53
2019-02-23T08:14:08.943Z,42.27
2019-02-23T08:16:39.221Z,37.63
2019-02-23T08:19:08.432Z,42.13
2019-02-23T08:21:37.574Z,37.33
2019-02-23T08:24:12.040Z,37.50
2019-02-23T08:26:47.068Z,38.70
2019-02-23T08:29:19.507Z,40.27
2019-02-23T08:31:49.056Z,37.40
2019-02-23T08:34:18.446Z,40.13
2019-02-23T08:36:49.706Z,38.97
2019-02-23T08:43:08.530Z,35.43
2019-02-23T08:45:37.570Z,36.97
2019-02-23T08:48:06.683Z,37.17
2019-02-23T08:50:35.773Z,36.50
2019-02-23T08:53:04.928Z,37.40
2019-02-23T08:55:35.317Z,36.47
2019-02-23T08:58:08.089Z,36.83
2019-02-23T09:00:45.116Z,35.50
2019-02-23T09:03:11.646Z,36.70
2019-02-23T09:05:42.450Z,37.83
2019-02-23T09:08:13.011Z,38.27
2019-02-23T09:10:42.142Z,34.83
2019-02-23T09:13:15.365Z,36.93
2019-02-23T09:15:45.468Z,36.33
2019-02-23T09:18:15.117Z,36.33
2019-02-23T09:20:47.567Z,37.40
2019-02-23T09:23:17.830Z,39.60
2019-02-23T09:25:52.045Z,36.67
2019-02-23T09:28:23.619Z,37.37
2019-02-23T09:30:52.935Z,39.10
2019-02-23T09:33:22.079Z,35.03
2019-02-23T09:35:51.183Z,34.13
2019-02-23T09:38:20.558Z,38.00
2019-02-23T09:40:50.025Z,33.67
2019-02-23T09:43:19.742Z,37.33
2019-02-23T09:45:48.866Z,38.37
2019-02-23T09:48:21.005Z,36.20
2019-02-23T09:50:50.221Z,32.87
2019-02-23T09:53:25.167Z,37.87
2019-02-23T09:55:55.233Z,34.80
2019-02-23T09:58:31.108Z,35.47
2019-02-23T10:01:02.837Z,33.83
2019-02-23T10:03:50.547Z,33.37
2019-02-23T10:06:20.252Z,34.80
2019-02-23T10:08:51.265Z,32.80
2019-02-23T10:11:20.839Z,33.17
2019-02-23T10:13:52.177Z,32.60
2019-02-23T10:16:27.567Z,29.97
2019-02-23T10:19:07.300Z,31.27
2019-02-23T10:22:28.007Z,32.77
2019-02-23T10:25:00.225Z,29.63
2019-02-23T10:27:34.528Z,31.57
2019-02-23T10:30:06.728Z,33.30
2019-02-23T10:32:38.379Z,29.23
2019-02-23T10:35:12.632Z,30.60
2019-02-23T10:37:43.096Z,30.97
2019-02-23T10:40:19.114Z,29.57
2019-02-23T10:42:51.118Z,29.97
2019-02-23T10:45:22.018Z,27.77
2019-02-23T10:47:51.148Z,29.10
2019-02-23T10:50:23.054Z,29.60
2019-02-23T10:52:53.667Z,32.60
2019-02-23T10:55:24.367Z,28.87
2019-02-23T10:57:56.426Z,29.97
2019-02-23T11:00:25.822Z,28.00
2019-02-23T11:02:57.071Z,29.17
2019-02-23T11:05:26.123Z,28.43
2019-02-23T11:08:02.660Z,26.17
2019-02-23T11:10:34.051Z,29.27
2019-02-23T11:13:03.761Z,30.30
2019-02-23T11:15:36.156Z,30.90
2019-02-23T11:18:05.554Z,28.90
2019-02-23T11:20:35.533Z,26.03
2019-02-23T11:23:04.716Z,25.80
2019-02-23T11:25:34.016Z,24.00
2019-02-23T11:28:03.249Z,26.53
2019-02-23T11:30:32.411Z,27.40
2019-02-23T11:33:01.624Z,24.50
2019-02-23T11:35:30.817Z,28.13
2019-02-23T11:38:00.028Z,28.70
2019-02-23T11:40:29.335Z,21.67
2019-02-23T11:42:58.565Z,19.53
2019-02-23T11:45:27.867Z,21.93
2019-02-23T11:47:57.003Z,22.30
2019-02-23T11:50:26.242Z,21.23
2019-02-23T11:52:55.417Z,23.90
2019-02-23T11:55:24.971Z,23.50
2019-02-23T11:57:54.213Z,21.93
2019-02-23T12:00:24.268Z,22.97
2019-02-23T12:02:53.450Z,22.70
2019-02-23T12:05:23.644Z,23.23
2019-02-23T12:07:52.881Z,22.13
2019-02-23T12:10:22.059Z,20.67
2019-02-23T12:12:51.251Z,20.53
2019-02-23T12:15:20.381Z,23.80
2019-02-23T12:17:49.605Z,21.10
2019-02-23T12:20:21.199Z,20.57
2019-02-23T12:22:50.997Z,20.30
2019-02-23T12:25:22.092Z,21.33
2019-02-23T12:27:51.995Z,22.80
2019-02-23T12:30:21.754Z,20.93
2019-02-23T12:32:51.007Z,20.93
2019-02-23T12:35:46.199Z,19.17
2019-02-23T12:38:16.169Z,18.00
2019-02-23T12:40:45.289Z,17.27
2019-02-23T12:43:14.489Z,15.07
2019-02-23T12:45:43.627Z,16.93
2019-02-23T12:48:12.805Z,18.90
2019-02-23T12:50:41.968Z,15.83
2019-02-23T12:53:11.172Z,14.10
2019-02-23T12:55:40.309Z,20.10
2019-02-23T12:58:09.467Z,20.73
2019-02-23T13:00:38.603Z,22.70
2019-02-23T13:03:07.751Z,20.80
2019-02-23T13:05:37.165Z,22.70
2019-02-23T13:08:06.334Z,22.80
2019-02-23T13:10:56.231Z,25.40
2019-02-23T13:13:38.739Z,24.53
2019-02-23T13:16:28.271Z,26.30
2019-02-23T13:19:37.269Z,24.20
2019-02-23T13:22:38.662Z,22.90
2019-02-23T13:25:34.034Z,21.37
2019-02-23T13:28:53.496Z,20.80
2019-02-23T13:31:50.929Z,21.37
2019-02-23T13:34:55.856Z,20.83
2019-02-23T13:37:59.591Z,20.83
2019-02-23T13:40:58.868Z,21.27
2019-02-23T13:44:00.401Z,20.40
2019-02-23T13:47:03.171Z,20.70
2019-02-23T13:49:53.851Z,21.57
2019-02-23T13:52:56.002Z,25.43
2019-02-23T13:55:55.917Z,27.07
2019-02-23T13:58:59.162Z,22.50
2019-02-23T14:01:53.428Z,26.77
2019-02-23T14:04:39.513Z,24.77
2019-02-23T14:07:45.583Z,23.83
2019-02-23T14:10:34.912Z,24.53
2019-02-23T14:13:51.384Z,25.17
2019-02-23T14:16:46.009Z,25.20
2019-02-23T14:19:39.618Z,24.87
2019-02-23T14:22:50.936Z,24.23
2019-02-23T14:26:01.271Z,24.03
2019-02-23T14:28:57.058Z,23.50
2019-02-23T14:31:51.372Z,26.53
2019-02-23T14:34:50.969Z,25.90
2019-02-23T14:37:32.794Z,25.03
2019-02-23T14:40:31.158Z,26.57
2019-02-23T14:43:33.614Z,24.77
2019-02-23T14:46:43.457Z,26.30
2019-02-23T14:49:49.976Z,26.67
2019-02-23T14:53:08.276Z,25.87
2019-02-23T14:56:04.979Z,26.63
2019-02-23T14:58:53.694Z,25.40
2019-02-23T15:02:05.370Z,26.37
2019-02-23T15:05:17.260Z,27.43
2019-02-23T15:08:33.479Z,27.13
2019-02-23T15:11:36.290Z,26.60
2019-02-23T15:14:33.801Z,23.60
2019-02-23T15:17:32.524Z,24.63
2019-02-23T15:20:20.637Z,24.40
2019-02-23T15:23:42.793Z,25.93
2019-02-23T15:27:11.380Z,25.30
2019-02-23T15:30:05.724Z,23.50
2019-02-23T15:33:11.089Z,26.80
2019-02-23T15:36:20.490Z,25.23
2019-02-23T15:39:42.403Z,24.43
2019-02-23T15:42:58.300Z,27.43
2019-02-23T15:45:53.724Z,28.43
2019-02-23T15:48:47.911Z,26.03
2019-02-23T15:51:17.957Z,27.53
2019-02-23T15:53:47.048Z,25.63
2019-02-23T15:56:17.445Z,25.17
2019-02-23T15:58:46.586Z,26.87
2019-02-23T16:01:15.860Z,25.87
2019-02-23T16:03:45.149Z,27.67
2019-02-23T16:06:14.437Z,26.27
2019-02-23T16:08:44.706Z,25.20
2019-02-23T16:11:13.970Z,24.90
2019-02-23T16:13:43.356Z,26.67
2019-02-23T16:16:12.634Z,27.07
2019-02-23T16:18:41.768Z,27.10
2019-02-23T16:21:10.919Z,26.03
2019-02-23T16:23:40.068Z,26.77
2019-02-23T16:26:09.385Z,28.93
2019-02-23T16:28:40.074Z,28.13
2019-02-23T16:31:09.203Z,27.80
2019-02-23T16:33:38.710Z,30.07
2019-02-23T16:36:07.947Z,29.20
2019-02-23T16:38:37.067Z,30.67
2019-02-23T16:41:06.372Z,28.33
2019-02-23T16:43:35.475Z,27.47
2019-02-23T16:46:04.639Z,28.27
2019-02-23T16:48:34.176Z,26.17
2019-02-23T16:51:03.366Z,24.23
2019-02-23T16:53:32.488Z,26.73
2019-02-23T16:56:01.720Z,28.30
2019-02-23T16:58:30.872Z,26.57
2019-02-23T17:00:59.984Z,28.80
2019-02-23T17:03:29.160Z,30.70
2019-02-23T17:05:58.361Z,26.47
2019-02-23T17:08:27.434Z,28.60
2019-02-23T17:10:56.585Z,26.37
2019-02-23T17:13:25.745Z,28.00
2019-02-23T17:15:54.868Z,29.17
2019-02-23T17:18:23.968Z,26.83
2019-02-23T17:20:53.109Z,28.17
2019-02-23T17:23:22.307Z,33.03
2019-02-23T17:26:03.307Z,28.87
2019-02-23T17:28:22.401Z,21.73
2019-02-23T17:30:51.566Z,25.73
2019-02-23T17:33:20.743Z,26.13
2019-02-23T17:35:49.831Z,30.03
2019-02-23T17:38:18.943Z,27.73
2019-02-23T17:40:48.085Z,31.03
2019-02-23T17:43:17.280Z,25.53
2019-02-23T17:45:46.413Z,27.40
2019-02-23T17:48:15.592Z,25.10
2019-02-23T17:50:44.705Z,24.87
2019-02-23T17:53:13.826Z,24.63
2019-02-23T17:55:42.992Z,25.13
2019-02-23T17:58:12.125Z,26.30
2019-02-23T18:00:41.486Z,24.90
2019-02-23T18:03:10.631Z,23.30
2019-02-23T18:05:39.789Z,27.93
2019-02-23T18:08:08.991Z,25.00
2019-02-23T18:10:38.596Z,28.00
2019-02-23T18:13:07.882Z,30.60
2019-02-23T18:15:37.032Z,34.00
2019-02-23T18:18:06.309Z,29.33
2019-02-23T18:20:35.452Z,31.73
2019-02-23T18:23:04.618Z,32.57
2019-02-23T18:25:33.805Z,30.27
2019-02-23T18:28:03.181Z,26.07
2019-02-23T18:30:32.741Z,29.57
2019-02-23T18:33:02.099Z,30.23
2019-02-23T18:35:31.295Z,25.17
2019-02-23T18:38:00.835Z,29.83
2019-02-23T18:40:29.999Z,23.90
2019-02-23T18:42:59.143Z,26.60
2019-02-23T18:45:28.303Z,28.60
2019-02-23T18:47:57.591Z,28.70
2019-02-23T18:50:26.917Z,26.43
2019-02-23T18:52:56.169Z,28.03
2019-02-23T18:55:25.906Z,28.40
2019-02-23T18:57:55.479Z,26.93
2019-02-23T19:00:24.773Z,24.23
2019-02-23T19:02:54.052Z,24.00
2019-02-23T19:05:23.272Z,25.77
2019-02-23T19:07:52.578Z,22.30
2019-02-23T19:10:21.914Z,26.33
2019-02-23T19:12:51.389Z,27.33
2019-02-23T19:15:20.553Z,25.20
2019-02-23T19:17:49.709Z,31.13
2019-02-23T19:20:18.884Z,35.07
2019-02-23T19:22:48.006Z,37.60
2019-02-23T19:25:17.160Z,27.70
2019-02-23T19:27:46.282Z,28.40
2019-02-23T19:30:15.457Z,29.10
2019-02-23T19:32:44.567Z,30.30
2019-02-23T19:35:15.044Z,34.63
2019-02-23T19:37:44.179Z,35.57
2019-02-23T19:40:13.476Z,36.00
2019-02-23T19:42:42.634Z,34.13
2019-02-23T19:45:11.950Z,25.33
2019-02-23T19:47:41.508Z,20.73
2019-02-23T19:50:13.951Z,20.60
2019-02-23T19:52:43.144Z,26.00
2019-02-23T19:55:13.915Z,21.63
2019-02-23T19:57:43.129Z,22.70
2019-02-23T20:00:12.395Z,26.37
2019-02-23T20:02:41.518Z,39.73
2019-02-23T20:05:10.794Z,51.07
2019-02-23T20:07:40.172Z,24.90
2019-02-23T20:10:09.720Z,28.63
2019-02-23T20:12:38.966Z,29.83
2019-02-23T20:15:08.170Z,27.07
2019-02-23T20:17:37.416Z,42.70
2019-02-23T20:20:07.007Z,34.17
2019-02-23T20:22:36.302Z,26.50
2019-02-23T20:25:05.596Z,45.17
2019-02-23T20:27:34.952Z,46.30
2019-02-23T20:30:04.100Z,66.17
2019-02-23T20:32:38.131Z,55.87
2019-02-23T20:35:07.336Z,49.00
2019-02-23T20:37:36.469Z,31.40
2019-02-23T20:40:05.966Z,28.83
2019-02-23T20:42:35.038Z,34.43
2019-02-23T20:45:04.127Z,26.43
2019-02-23T20:47:36.266Z,34.83
2019-02-23T20:50:08.086Z,25.07
2019-02-23T20:52:37.302Z,30.70
2019-02-23T20:55:06.713Z,25.47
2019-02-23T20:57:35.934Z,25.20
2019-02-23T21:00:05.224Z,24.83
2019-02-23T21:02:34.555Z,27.37
2019-02-23T21:05:03.646Z,28.10
2019-02-23T21:07:32.904Z,30.47
2019-02-23T21:10:01.988Z,25.93
2019-02-23T21:12:31.023Z,28.03
2019-02-23T21:15:00.094Z,28.17
2019-02-23T21:17:29.461Z,24.77
2019-02-23T21:19:58.571Z,26.33
2019-02-23T21:22:28.846Z,28.37
2019-02-23T21:24:57.913Z,29.77
2019-02-23T21:27:26.882Z,31.40
2019-02-23T21:29:56.014Z,27.00
2019-02-23T21:32:25.198Z,27.77
2019-02-23T21:34:54.229Z,26.33
2019-02-23T21:37:23.343Z,25.40
2019-02-23T21:39:52.469Z,25.90
2019-02-23T21:42:23.040Z,24.90
2019-02-23T21:44:52.269Z,28.53
2019-02-23T21:47:21.408Z,25.90
2019-02-23T21:49:50.823Z,26.97
2019-02-23T21:52:19.976Z,27.43
2019-02-23T21:54:49.195Z,25.80
2019-02-23T21:57:22.204Z,26.87
2019-02-23T21:59:49.299Z,24.47
2019-02-23T22:02:18.474Z,30.07
2019-02-23T22:04:47.946Z,25.77
2019-02-23T22:07:17.063Z,23.73
2019-02-23T22:09:46.114Z,23.87
2019-02-23T22:12:18.102Z,23.00
2019-02-23T22:14:47.297Z,23.00
2019-02-23T22:17:16.436Z,24.60
2019-02-23T22:19:45.538Z,23.07
2019-02-23T22:22:14.675Z,23.37
2019-02-23T22:24:43.827Z,25.10
2019-02-23T22:27:12.934Z,23.20
2019-02-23T22:29:42.176Z,20.97
2019-02-23T22:32:11.256Z,23.90
2019-02-23T22:34:41.718Z,23.73
2019-02-23T22:37:11.134Z,24.07
2019-02-23T22:39:40.279Z,23.80
2019-02-23T22:42:09.444Z,22.73
2019-02-23T22:44:38.581Z,21.40
2019-02-23T22:47:07.689Z,21.67
2019-02-23T22:49:37.206Z,22.90
2019-02-23T22:52:06.471Z,23.87
2019-02-23T22:54:35.561Z,23.00
2019-02-23T22:57:04.750Z,26.77
2019-02-23T22:59:36.394Z,28.87
2019-02-23T23:02:08.286Z,23.10
2019-02-23T23:04:37.197Z,22.30
2019-02-23T23:07:12.280Z,24.90
2019-02-23T23:09:41.295Z,25.10
2019-02-23T23:12:10.678Z,25.13
2019-02-23T23:14:46.750Z,25.63
2019-02-23T23:17:16.475Z,25.00
2019-02-23T23:19:45.540Z,27.00
2019-02-23T23:22:14.639Z,21.10
2019-02-23T23:24:43.668Z,19.30
2019-02-23T23:27:12.790Z,23.00
2019-02-23T23:29:44.257Z,21.50
2019-02-23T23:32:18.646Z,25.07
2019-02-23T23:34:47.646Z,18.10
2019-02-23T23:37:16.772Z,21.33
2019-02-23T23:39:45.820Z,22.00
2019-02-23T23:42:14.916Z,22.03
2019-02-23T23:44:45.088Z,19.20
2019-02-23T23:47:14.193Z,20.07
2019-02-23T23:49:43.214Z,19.27
2019-02-23T23:52:12.237Z,20.17
2019-02-23T23:54:41.334Z,18.80
2019-02-23T23:57:10.433Z,25.43
2019-02-23T23:59:39.424Z,28.03
